createdAt,value
2018-06-01T05:23:51.637Z,5.47
2018-06-01T05:26:19.016Z,2.17
2018-06-01T05:28:46.416Z,2.17
2018-06-01T05:31:13.801Z,2.00
2018-06-01T05:33:41.188Z,2.00
2018-06-01T05:36:08.581Z,2.00
2018-06-01T05:38:35.970Z,1.70
2018-06-01T05:41:03.353Z,1.60
2018-06-01T05:43:30.750Z,1.40
2018-06-01T05:45:58.144Z,1.63
2018-06-01T05:48:25.529Z,1.30
2018-06-01T05:50:52.920Z,1.80
2018-06-01T05:53:20.308Z,1.70
2018-06-01T05:55:47.696Z,1.70
2018-06-01T05:58:15.089Z,2.00
2018-06-01T06:00:42.478Z,1.80
2018-06-01T06:03:09.865Z,1.80
2018-06-01T06:05:37.245Z,2.10
2018-06-01T06:08:04.648Z,2.50
2018-06-01T06:10:32.024Z,2.10
2018-06-01T06:12:59.439Z,2.50
2018-06-01T06:15:26.825Z,2.00
2018-06-01T06:17:54.221Z,2.30
2018-06-01T06:20:21.605Z,1.77
2018-06-01T06:22:49.032Z,2.27
2018-06-01T06:25:16.385Z,2.03
2018-06-01T06:27:43.771Z,2.37
2018-06-01T06:30:11.160Z,2.53
2018-06-01T06:32:38.897Z,2.40
2018-06-01T06:35:06.283Z,2.83
2018-06-01T06:37:33.952Z,2.70
2018-06-01T06:40:01.477Z,2.90
2018-06-01T06:42:28.865Z,2.17
2018-06-01T06:44:56.260Z,3.10
2018-06-01T06:47:23.640Z,2.47
2018-06-01T06:49:51.949Z,3.60
2018-06-01T06:52:19.329Z,2.93
2018-06-01T06:54:46.725Z,2.93
2018-06-01T06:57:14.113Z,3.50
2018-06-01T06:59:41.501Z,2.70
2018-06-01T07:02:08.909Z,3.00
2018-06-01T07:04:36.301Z,3.67
2018-06-01T07:07:03.710Z,3.90
2018-06-01T07:09:31.102Z,3.80
2018-06-01T07:11:58.493Z,3.57
2018-06-01T07:14:25.883Z,2.93
2018-06-01T07:16:53.264Z,3.07
2018-06-01T07:19:20.653Z,3.07
2018-06-01T07:21:48.045Z,3.80
2018-06-01T07:24:16.356Z,6.13
2018-06-01T07:26:43.730Z,3.70
2018-06-01T07:35:17.267Z,3.63
2018-06-01T07:37:56.414Z,3.77
2018-06-01T07:43:26.231Z,3.27
2018-06-01T07:45:53.635Z,3.07
2018-06-01T07:57:29.204Z,4.27
2018-06-01T07:59:56.617Z,5.03
2018-06-01T08:02:24.062Z,5.27
2018-06-01T08:04:51.474Z,4.37
2018-06-01T08:07:18.860Z,3.63
2018-06-01T08:09:46.252Z,3.30
2018-06-01T08:12:14.578Z,3.70
2018-06-01T08:14:42.058Z,2.77
2018-06-01T08:23:15.375Z,3.10
2018-06-01T08:25:42.775Z,3.42
2018-06-01T08:28:10.173Z,3.00
2018-06-01T08:30:37.601Z,2.90
2018-06-01T09:03:34.709Z,2.50
2018-06-01T09:06:02.121Z,2.70
2018-06-01T09:08:29.511Z,3.00
2018-06-01T09:10:56.910Z,4.40
2018-06-01T09:13:24.314Z,3.80
2018-06-01T09:15:51.698Z,2.87
2018-06-01T09:18:19.093Z,3.50
2018-06-01T09:20:46.485Z,3.10
2018-06-01T09:23:13.885Z,2.80
2018-06-01T09:25:41.276Z,3.65
2018-06-01T09:28:08.703Z,2.60
2018-06-01T09:30:36.109Z,3.87
2018-06-01T09:33:03.546Z,2.85
2018-06-01T09:35:30.985Z,3.60
2018-06-01T09:37:58.377Z,3.47
2018-06-01T09:40:25.785Z,2.83
2018-06-01T09:42:53.189Z,2.90
2018-06-01T09:45:20.585Z,3.90
2018-06-01T09:47:47.991Z,3.53
2018-06-01T09:50:15.380Z,3.40
2018-06-01T09:52:42.789Z,3.40
2018-06-01T09:55:10.174Z,3.13
2018-06-01T09:57:37.731Z,2.90
2018-06-01T10:00:05.109Z,2.93
2018-06-01T10:02:32.514Z,3.00
2018-06-01T10:05:00.376Z,3.47
2018-06-01T10:07:27.784Z,2.93
2018-06-01T10:10:00.667Z,3.13
2018-06-01T10:12:28.060Z,2.53
2018-06-01T10:14:55.532Z,2.60
2018-06-01T10:17:22.928Z,3.33
2018-06-01T10:19:50.413Z,3.20
2018-06-01T10:22:17.863Z,2.50
2018-06-01T10:24:45.260Z,3.30
2018-06-01T10:27:12.679Z,2.70
2018-06-01T10:29:40.140Z,3.43
2018-06-01T10:32:07.560Z,2.63
2018-06-01T10:34:35.711Z,3.10
2018-06-01T10:37:03.099Z,3.30
2018-06-01T10:39:31.422Z,3.50
2018-06-01T10:41:58.789Z,2.90
2018-06-01T10:44:26.192Z,2.80
2018-06-01T10:46:53.783Z,2.67
2018-06-01T10:49:21.181Z,2.70
2018-06-01T10:51:48.581Z,2.85
2018-06-01T10:54:15.978Z,3.33
2018-06-01T10:56:43.364Z,2.70
2018-06-01T10:59:10.767Z,3.63
2018-06-01T11:01:38.225Z,2.93
2018-06-01T11:04:05.563Z,2.90
2018-06-01T11:06:32.953Z,3.10
2018-06-01T11:09:00.361Z,3.57
2018-06-01T11:11:27.739Z,2.50
2018-06-01T11:13:55.149Z,2.70
2018-06-01T11:16:22.585Z,3.43
2018-06-01T11:18:49.989Z,3.07
2018-06-01T11:21:18.181Z,4.10
2018-06-01T11:23:45.570Z,3.23
2018-06-01T11:26:12.961Z,3.33
2018-06-01T11:28:40.421Z,2.90
2018-06-01T11:31:07.849Z,3.57
2018-06-01T11:33:35.248Z,4.40
2018-06-01T11:36:03.025Z,2.95
2018-06-01T11:38:30.429Z,3.00
2018-06-01T11:40:57.820Z,3.27
2018-06-01T11:43:25.200Z,3.37
2018-06-01T11:45:52.600Z,2.77
2018-06-01T11:48:19.981Z,2.50
2018-06-01T11:50:47.381Z,3.07
2018-06-01T11:53:14.772Z,2.60
2018-06-01T11:55:42.173Z,2.50
2018-06-01T11:58:09.560Z,3.17
2018-06-01T12:00:36.963Z,3.27
2018-06-01T12:03:04.399Z,3.30
2018-06-01T12:05:31.962Z,2.75
2018-06-01T12:07:59.351Z,2.77
2018-06-01T12:10:26.757Z,2.70
2018-06-01T12:12:54.150Z,3.03
2018-06-01T12:15:21.545Z,3.27
2018-06-01T12:17:48.977Z,3.50
2018-06-01T12:20:16.333Z,3.55
2018-06-01T12:22:43.729Z,3.10
2018-06-01T12:25:11.133Z,4.13
2018-06-01T12:27:38.529Z,3.03
2018-06-01T12:30:05.936Z,3.43
2018-06-01T12:32:33.325Z,3.50
2018-06-01T12:35:00.780Z,3.35
2018-06-01T12:37:28.190Z,3.10
2018-06-01T12:39:55.552Z,3.50
2018-06-01T12:42:22.984Z,2.53
2018-06-01T12:44:50.359Z,3.00
2018-06-01T12:47:17.761Z,3.20
2018-06-01T12:49:45.173Z,2.87
2018-06-01T12:52:12.571Z,3.63
2018-06-01T12:54:39.952Z,3.30
2018-06-01T12:57:07.361Z,3.60
2018-06-01T12:59:35.673Z,3.37
2018-06-01T13:02:03.092Z,3.33
2018-06-01T13:04:30.479Z,2.70
2018-06-01T13:06:57.869Z,2.80
2018-06-01T13:09:25.262Z,3.03
2018-06-01T13:11:52.673Z,3.70
2018-06-01T13:14:20.103Z,2.65
2018-06-01T13:16:47.467Z,2.60
2018-06-01T13:19:14.841Z,2.77
2018-06-01T13:21:42.244Z,3.17
2018-06-01T13:24:09.643Z,3.20
2018-06-01T13:26:37.041Z,2.70
2018-06-01T13:29:04.429Z,2.40
2018-06-01T13:31:31.816Z,2.77
2018-06-01T13:33:59.464Z,2.30
2018-06-01T13:36:26.928Z,2.60
2018-06-01T13:38:54.313Z,2.83
2018-06-01T13:41:21.714Z,3.00
2018-06-01T13:43:49.104Z,2.37
2018-06-01T13:46:16.498Z,2.63
2018-06-01T13:48:43.899Z,3.20
2018-06-01T13:51:11.293Z,2.80
2018-06-01T13:53:38.689Z,2.00
2018-06-01T13:56:06.073Z,2.57
2018-06-01T13:58:33.472Z,2.78
2018-06-01T14:01:00.877Z,2.27
2018-06-01T14:03:28.265Z,3.07
2018-06-01T14:05:56.368Z,3.10
2018-06-01T14:08:23.768Z,2.45
2018-06-01T14:10:51.149Z,2.67
2018-06-01T14:13:18.597Z,2.30
2018-06-01T14:15:45.993Z,2.47
2018-06-01T14:18:13.395Z,2.00
2018-06-01T14:20:40.781Z,2.00
2018-06-01T14:23:08.542Z,2.03
2018-06-01T14:25:35.924Z,2.30
2018-06-01T14:28:04.106Z,2.10
2018-06-01T14:30:31.488Z,2.10
2018-06-01T14:32:58.893Z,2.40
2018-06-01T14:35:26.406Z,1.90
2018-06-01T14:37:53.937Z,2.30
2018-06-01T14:40:21.336Z,2.10
2018-06-01T14:42:48.782Z,1.90
2018-06-01T14:45:16.176Z,1.80
2018-06-01T14:47:43.561Z,2.00
2018-06-01T14:50:10.973Z,2.40
2018-06-01T14:52:38.360Z,2.10
2018-06-01T14:55:05.764Z,2.13
2018-06-01T14:57:33.153Z,1.90
2018-06-01T15:00:00.553Z,1.83
2018-06-01T15:02:27.948Z,2.20
2018-06-01T15:04:55.349Z,1.95
2018-06-01T15:07:22.945Z,2.43
2018-06-01T15:09:50.368Z,2.55
2018-06-01T15:12:17.776Z,2.43
2018-06-01T15:14:45.238Z,2.10
2018-06-01T15:17:12.758Z,2.10
2018-06-01T15:19:40.374Z,1.77
2018-06-01T15:22:07.765Z,1.60
2018-06-01T15:24:35.168Z,1.90
2018-06-01T15:27:02.556Z,1.60
2018-06-01T15:29:29.958Z,1.40
2018-06-01T15:31:57.345Z,1.75
2018-06-01T15:34:24.742Z,2.00
2018-06-01T15:36:52.135Z,1.63
2018-06-01T15:39:19.525Z,1.75
2018-06-01T15:41:46.909Z,1.70
2018-06-01T15:44:14.304Z,1.60
2018-06-01T15:46:41.701Z,1.50
2018-06-01T15:49:09.119Z,1.90
2018-06-01T15:51:36.541Z,1.90
2018-06-01T15:54:03.925Z,2.00
2018-06-01T15:56:31.437Z,1.90
2018-06-01T15:58:58.829Z,2.00
2018-06-01T16:01:26.224Z,2.17
2018-06-01T16:03:53.630Z,2.70
2018-06-01T16:06:21.027Z,2.30
2018-06-01T16:08:49.357Z,1.90
2018-06-01T16:11:16.789Z,2.00
2018-06-01T16:13:44.184Z,2.10
2018-06-01T16:16:12.325Z,1.98
2018-06-01T16:18:39.712Z,1.60
2018-06-01T16:21:07.111Z,1.50
2018-06-01T16:23:34.501Z,1.40
2018-06-01T16:26:01.906Z,1.37
2018-06-01T16:28:29.330Z,1.37
2018-06-01T16:30:56.725Z,1.10
2018-06-01T16:33:24.169Z,1.10
2018-06-01T16:35:51.566Z,1.23
2018-06-01T16:38:19.055Z,1.10
2018-06-01T16:40:46.973Z,1.23
2018-06-01T16:43:14.349Z,1.20
2018-06-01T16:45:41.745Z,1.50
2018-06-01T16:48:09.151Z,1.60
2018-06-01T16:50:36.553Z,1.37
2018-06-01T16:53:03.949Z,1.60
2018-06-01T16:55:31.340Z,1.60
2018-06-01T16:57:58.729Z,1.60
2018-06-01T17:00:26.128Z,1.60
2018-06-01T17:02:53.511Z,1.73
2018-06-01T17:05:20.908Z,1.60
2018-06-01T17:07:48.309Z,2.05
2018-06-01T17:10:15.696Z,2.10
2018-06-01T17:12:43.101Z,1.87
2018-06-01T17:15:10.517Z,1.93
2018-06-01T17:17:37.917Z,2.20
2018-06-01T17:20:05.301Z,1.60
2018-06-01T17:22:33.496Z,2.60
2018-06-01T17:25:00.865Z,1.70
2018-06-01T17:27:28.267Z,1.95
2018-06-01T17:29:55.657Z,2.10
2018-06-01T17:32:24.661Z,2.47
2018-06-01T17:34:52.061Z,2.12
2018-06-01T17:37:19.460Z,1.93
2018-06-01T17:39:48.239Z,2.30
2018-06-01T17:42:15.649Z,2.30
2018-06-01T17:44:43.041Z,2.40
2018-06-01T17:47:10.523Z,2.10
2018-06-01T17:49:37.939Z,2.07
2018-06-01T17:52:05.339Z,2.30
2018-06-01T17:57:19.015Z,2.45
2018-06-01T17:59:46.409Z,2.73
2018-06-01T18:02:14.416Z,3.17
2018-06-01T18:07:44.099Z,2.60
2018-06-01T18:13:14.643Z,2.30
2018-06-01T19:01:27.495Z,2.50
2018-06-01T19:03:54.962Z,2.10
2018-06-01T19:06:22.431Z,2.23
2018-06-01T19:08:49.846Z,2.80
2018-06-01T19:11:17.313Z,2.42
2018-06-01T19:13:44.708Z,2.33
2018-06-01T19:16:12.124Z,2.10
2018-06-01T19:18:39.516Z,2.23
2018-06-01T19:21:06.901Z,2.23
2018-06-01T19:23:34.304Z,2.77
2018-06-01T19:26:05.812Z,2.50
2018-06-01T19:49:59.576Z,3.93
2018-06-01T19:55:30.190Z,2.63
2018-06-01T20:43:42.591Z,2.50
2018-06-01T20:46:13.135Z,3.50
2018-06-01T20:48:40.563Z,2.60
